sensor_id;sensor_type;location;lat;lon;timestamp;pressure;altitude;pressure_sealevel;temperature;humidity
42111;BME280;27766;52.174;5.456;2023-04-07T00:01:02;101342.72;;;8.67;100.00
42111;BME280;27766;52.174;5.456;2023-04-07T00:03:29;101344.31;;;8.63;100.00
42111;BME280;27766;52.174;5.456;2023-04-07T00:05:56;101345.75;;;8.55;100.00
42111;BME280;27766;52.174;5.456;2023-04-07T00:08:23;101350.13;;;8.58;100.00
42111;BME280;27766;52.174;5.456;2023-04-07T00:10:51;101342.75;;;8.68;100.00
42111;BME280;27766;52.174;5.456;2023-04-07T00:13:18;101343.28;;;8.58;100.00
42111;BME280;27766;52.174;5.456;2023-04-07T00:15:45;101351.88;;;8.59;100.00
42111;BME280;27766;52.174;5.456;2023-04-07T00:18:12;101341.69;;;8.62;100.00
42111;BME280;27766;52.174;5.456;2023-04-07T00:20:39;101348.53;;;8.61;100.00
42111;BME280;27766;52.174;5.456;2023-04-07T00:23:06;101349.16;;;8.54;100.00
42111;BME280;27766;52.174;5.456;2023-04-07T00:25:33;101349.09;;;8.52;100.00
42111;BME280;27766;52.174;5.456;2023-04-07T00:28:01;101335.63;;;8.37;100.00
42111;BME280;27766;52.174;5.456;2023-04-07T00:30:28;101351.56;;;8.49;100.00
42111;BME280;27766;52.174;5.456;2023-04-07T00:32:55;101354.91;;;8.47;100.00
42111;BME280;27766;52.174;5.456;2023-04-07T00:35:22;101355.16;;;8.54;100.00
42111;BME280;27766;52.174;5.456;2023-04-07T00:37:50;101358.44;;;8.49;100.00
42111;BME280;27766;52.174;5.456;2023-04-07T00:40:17;101353.03;;;8.43;100.00
42111;BME280;27766;52.174;5.456;2023-04-07T00:42:44;101358.25;;;8.44;100.00
42111;BME280;27766;52.174;5.456;2023-04-07T00:45:11;101352.25;;;8.45;100.00
42111;BME280;27766;52.174;5.456;2023-04-07T00:47:38;101344.19;;;8.36;100.00
42111;BME280;27766;52.174;5.456;2023-04-07T00:50:06;101342.66;;;8.41;100.00
42111;BME280;27766;52.174;5.456;2023-04-07T00:52:34;101342.28;;;8.30;100.00
42111;BME280;27766;52.174;5.456;2023-04-07T00:55:02;101347.16;;;8.22;100.00
42111;BME280;27766;52.174;5.456;2023-04-07T00:57:30;101355.78;;;8.23;100.00
42111;BME280;27766;52.174;5.456;2023-04-07T00:59:57;101355.16;;;8.30;100.00
42111;BME280;27766;52.174;5.456;2023-04-07T01:02:35;101360.31;;;8.30;100.00
42111;BME280;27766;52.174;5.456;2023-04-07T01:07:50;101361.44;;;8.37;100.00
42111;BME280;27766;52.174;5.456;2023-04-07T01:15:47;101356.97;;;8.33;100.00
42111;BME280;27766;52.174;5.456;2023-04-07T01:18:21;101356.53;;;8.20;100.00
42111;BME280;27766;52.174;5.456;2023-04-07T01:20:50;101352.09;;;8.16;100.00
42111;BME280;27766;52.174;5.456;2023-04-07T01:23:37;101342.63;;;8.15;100.00
42111;BME280;27766;52.174;5.456;2023-04-07T01:26:19;101345.94;;;8.13;100.00
42111;BME280;27766;52.174;5.456;2023-04-07T01:31:15;101360.00;;;8.21;100.00
42111;BME280;27766;52.174;5.456;2023-04-07T01:33:44;101346.28;;;8.22;100.00
42111;BME280;27766;52.174;5.456;2023-04-07T01:36:12;101347.59;;;8.11;100.00
42111;BME280;27766;52.174;5.456;2023-04-07T01:38:42;101351.16;;;8.14;100.00
42111;BME280;27766;52.174;5.456;2023-04-07T01:41:10;101350.41;;;8.17;100.00
42111;BME280;27766;52.174;5.456;2023-04-07T01:43:38;101356.38;;;8.16;100.00
42111;BME280;27766;52.174;5.456;2023-04-07T01:46:07;101352.03;;;8.15;100.00
42111;BME280;27766;52.174;5.456;2023-04-07T01:48:35;101350.50;;;8.20;100.00
42111;BME280;27766;52.174;5.456;2023-04-07T01:51:03;101348.59;;;8.14;100.00
42111;BME280;27766;52.174;5.456;2023-04-07T01:53:32;101358.69;;;8.08;100.00
42111;BME280;27766;52.174;5.456;2023-04-07T01:56:04;101352.00;;;8.13;100.00
42111;BME280;27766;52.174;5.456;2023-04-07T01:58:31;101358.97;;;8.16;100.00
42111;BME280;27766;52.174;5.456;2023-04-07T02:00:58;101353.91;;;8.19;100.00
42111;BME280;27766;52.174;5.456;2023-04-07T02:03:33;101355.13;;;8.29;100.00
42111;BME280;27766;52.174;5.456;2023-04-07T02:06:05;101358.41;;;8.24;100.00
42111;BME280;27766;52.174;5.456;2023-04-07T02:08:35;101350.78;;;8.28;100.00
42111;BME280;27766;52.174;5.456;2023-04-07T02:11:05;101353.56;;;8.34;100.00
42111;BME280;27766;52.174;5.456;2023-04-07T02:13:36;101348.25;;;8.29;100.00
42111;BME280;27766;52.174;5.456;2023-04-07T02:16:05;101356.28;;;8.37;100.00
42111;BME280;27766;52.174;5.456;2023-04-07T02:18:33;101351.13;;;8.37;100.00
42111;BME280;27766;52.174;5.456;2023-04-07T02:21:01;101351.81;;;8.33;100.00
42111;BME280;27766;52.174;5.456;2023-04-07T02:23:30;101357.25;;;8.40;100.00
42111;BME280;27766;52.174;5.456;2023-04-07T02:25:57;101366.69;;;8.40;100.00
42111;BME280;27766;52.174;5.456;2023-04-07T02:28:24;101359.03;;;8.42;100.00
42111;BME280;27766;52.174;5.456;2023-04-07T02:30:51;101367.66;;;8.44;100.00
42111;BME280;27766;52.174;5.456;2023-04-07T02:33:19;101368.56;;;8.44;100.00
42111;BME280;27766;52.174;5.456;2023-04-07T02:35:46;101360.78;;;8.43;100.00
42111;BME280;27766;52.174;5.456;2023-04-07T02:38:13;101361.31;;;8.34;100.00
42111;BME280;27766;52.174;5.456;2023-04-07T02:40:40;101358.94;;;8.40;100.00
42111;BME280;27766;52.174;5.456;2023-04-07T02:43:07;101364.94;;;8.39;100.00
42111;BME280;27766;52.174;5.456;2023-04-07T02:45:34;101366.69;;;8.40;100.00
42111;BME280;27766;52.174;5.456;2023-04-07T02:48:02;101360.38;;;8.32;100.00
42111;BME280;27766;52.174;5.456;2023-04-07T02:50:29;101362.94;;;8.32;100.00
42111;BME280;27766;52.174;5.456;2023-04-07T02:52:56;101357.88;;;8.33;100.00
42111;BME280;27766;52.174;5.456;2023-04-07T02:55:23;101369.03;;;8.34;100.00
42111;BME280;27766;52.174;5.456;2023-04-07T02:57:50;101368.22;;;8.35;100.00
42111;BME280;27766;52.174;5.456;2023-04-07T03:00:17;101361.44;;;8.37;100.00
42111;BME280;27766;52.174;5.456;2023-04-07T03:02:45;101362.28;;;8.37;100.00
42111;BME280;27766;52.174;5.456;2023-04-07T03:05:12;101357.44;;;8.45;100.00
42111;BME280;27766;52.174;5.456;2023-04-07T03:07:39;101360.94;;;8.47;100.00
42111;BME280;27766;52.174;5.456;2023-04-07T03:10:07;101363.25;;;8.39;100.00
42111;BME280;27766;52.174;5.456;2023-04-07T03:12:34;101373.69;;;8.43;100.00
42111;BME280;27766;52.174;5.456;2023-04-07T03:15:01;101375.72;;;8.51;100.00
42111;BME280;27766;52.174;5.456;2023-04-07T03:17:30;101372.25;;;8.51;100.00
42111;BME280;27766;52.174;5.456;2023-04-07T03:19:57;101368.44;;;8.41;100.00
42111;BME280;27766;52.174;5.456;2023-04-07T03:22:24;101354.63;;;8.39;100.00
42111;BME280;27766;52.174;5.456;2023-04-07T03:24:51;101370.25;;;8.44;100.00
42111;BME280;27766;52.174;5.456;2023-04-07T03:27:19;101366.63;;;8.38;100.00
42111;BME280;27766;52.174;5.456;2023-04-07T03:29:46;101371.84;;;8.40;100.00
42111;BME280;27766;52.174;5.456;2023-04-07T03:32:13;101375.34;;;8.42;100.00
42111;BME280;27766;52.174;5.456;2023-04-07T03:34:40;101370.94;;;8.38;100.00
42111;BME280;27766;52.174;5.456;2023-04-07T03:37:07;101373.75;;;8.46;100.00
42111;BME280;27766;52.174;5.456;2023-04-07T03:39:34;101377.94;;;8.42;100.00
42111;BME280;27766;52.174;5.456;2023-04-07T03:42:03;101373.44;;;8.36;100.00
42111;BME280;27766;52.174;5.456;2023-04-07T03:44:30;101376.91;;;8.37;100.00
42111;BME280;27766;52.174;5.456;2023-04-07T03:46:57;101376.91;;;8.37;100.00
42111;BME280;27766;52.174;5.456;2023-04-07T03:49:24;101373.59;;;8.41;100.00
42111;BME280;27766;52.174;5.456;2023-04-07T03:51:52;101372.81;;;8.44;100.00
42111;BME280;27766;52.174;5.456;2023-04-07T03:54:20;101376.13;;;8.39;100.00
42111;BME280;27766;52.174;5.456;2023-04-07T03:56:47;101368.41;;;8.39;100.00
42111;BME280;27766;52.174;5.456;2023-04-07T03:59:14;101377.00;;;8.40;100.00
42111;BME280;27766;52.174;5.456;2023-04-07T04:01:41;101374.25;;;8.35;100.00
42111;BME280;27766;52.174;5.456;2023-04-07T04:04:09;101368.22;;;8.35;100.00
42111;BME280;27766;52.174;5.456;2023-04-07T04:09:13;101366.59;;;8.37;100.00
42111;BME280;27766;52.174;5.456;2023-04-07T04:11:41;101373.56;;;8.39;100.00
42111;BME280;27766;52.174;5.456;2023-04-07T04:14:08;101365.69;;;8.36;100.00
42111;BME280;27766;52.174;5.456;2023-04-07T04:16:35;101377.13;;;8.43;100.00
42111;BME280;27766;52.174;5.456;2023-04-07T04:19:02;101386.91;;;8.52;100.00
42111;BME280;27766;52.174;5.456;2023-04-07T04:21:29;101376.25;;;8.43;100.00
42111;BME280;27766;52.174;5.456;2023-04-07T04:23:57;101391.78;;;8.44;100.00
42111;BME280;27766;52.174;5.456;2023-04-07T04:26:24;101377.16;;;8.45;100.00
42111;BME280;27766;52.174;5.456;2023-04-07T04:28:52;101395.59;;;8.54;100.00
42111;BME280;27766;52.174;5.456;2023-04-07T04:31:19;101386.66;;;8.46;100.00
42111;BME280;27766;52.174;5.456;2023-04-07T04:33:46;101399.41;;;8.41;100.00
42111;BME280;27766;52.174;5.456;2023-04-07T04:36:13;101400.47;;;8.46;100.00
42111;BME280;27766;52.174;5.456;2023-04-07T04:38:40;101396.03;;;8.44;100.00
42111;BME280;27766;52.174;5.456;2023-04-07T04:41:07;101406.38;;;8.44;100.00
42111;BME280;27766;52.174;5.456;2023-04-07T04:43:34;101402.38;;;8.52;100.00
42111;BME280;27766;52.174;5.456;2023-04-07T04:46:01;101412.94;;;8.58;100.00
42111;BME280;27766;52.174;5.456;2023-04-07T04:48:29;101413.59;;;8.52;100.00
42111;BME280;27766;52.174;5.456;2023-04-07T04:50:56;101408.53;;;8.55;100.00
42111;BME280;27766;52.174;5.456;2023-04-07T04:53:23;101413.78;;;8.57;100.00
42111;BME280;27766;52.174;5.456;2023-04-07T04:55:50;101417.34;;;8.38;100.00
42111;BME280;27766;52.174;5.456;2023-04-07T04:58:19;101420.75;;;8.37;100.00
42111;BME280;27766;52.174;5.456;2023-04-07T05:00:47;101429.09;;;8.30;100.00
42111;BME280;27766;52.174;5.456;2023-04-07T05:03:14;101426.38;;;8.27;100.00
42111;BME280;27766;52.174;5.456;2023-04-07T05:05:41;101421.00;;;8.20;100.00
42111;BME280;27766;52.174;5.456;2023-04-07T05:08:10;101427.22;;;8.26;100.00
42111;BME280;27766;52.174;5.456;2023-04-07T05:10:38;101422.13;;;8.27;100.00
42111;BME280;27766;52.174;5.456;2023-04-07T05:13:06;101426.53;;;8.30;100.00
42111;BME280;27766;52.174;5.456;2023-04-07T05:15:33;101427.59;;;8.36;100.00
42111;BME280;27766;52.174;5.456;2023-04-07T05:18:01;101424.28;;;8.39;100.00
42111;BME280;27766;52.174;5.456;2023-04-07T05:20:28;101414.44;;;8.29;100.00
42111;BME280;27766;52.174;5.456;2023-04-07T05:22:56;101438.91;;;8.40;100.00
42111;BME280;27766;52.174;5.456;2023-04-07T05:25:23;101429.38;;;8.37;100.00
42111;BME280;27766;52.174;5.456;2023-04-07T05:27:50;101439.16;;;8.46;100.00
42111;BME280;27766;52.174;5.456;2023-04-07T05:30:17;101443.75;;;8.31;100.00
42111;BME280;27766;52.174;5.456;2023-04-07T05:32:44;101440.31;;;8.32;100.00
42111;BME280;27766;52.174;5.456;2023-04-07T05:35:14;101439.59;;;8.34;100.00
42111;BME280;27766;52.174;5.456;2023-04-07T05:37:41;101435.13;;;8.30;100.00
42111;BME280;27766;52.174;5.456;2023-04-07T05:40:09;101443.16;;;8.38;100.00
42111;BME280;27766;52.174;5.456;2023-04-07T05:42:36;101441.06;;;8.28;100.00
42111;BME280;27766;52.174;5.456;2023-04-07T05:45:04;101445.56;;;8.33;100.00
42111;BME280;27766;52.174;5.456;2023-04-07T05:47:34;101442.91;;;8.32;100.00
42111;BME280;27766;52.174;5.456;2023-04-07T05:50:01;101443.28;;;8.18;100.00
42111;BME280;27766;52.174;5.456;2023-04-07T05:52:28;101446.63;;;8.16;100.00
42111;BME280;27766;52.174;5.456;2023-04-07T05:54:56;101444.19;;;8.19;100.00
42111;BME280;27766;52.174;5.456;2023-04-07T05:57:23;101449.44;;;8.22;100.00
42111;BME280;27766;52.174;5.456;2023-04-07T05:59:53;101451.97;;;8.20;100.00
42111;BME280;27766;52.174;5.456;2023-04-07T06:02:20;101459.69;;;8.20;100.00
42111;BME280;27766;52.174;5.456;2023-04-07T06:04:48;101452.56;;;8.13;100.00
42111;BME280;27766;52.174;5.456;2023-04-07T06:07:15;101463.69;;;8.12;100.00
42111;BME280;27766;52.174;5.456;2023-04-07T06:09:42;101466.31;;;8.14;100.00
42111;BME280;27766;52.174;5.456;2023-04-07T06:12:10;101464.41;;;8.08;100.00
42111;BME280;27766;52.174;5.456;2023-04-07T06:14:38;101454.59;;;7.99;100.00
42111;BME280;27766;52.174;5.456;2023-04-07T06:17:05;101466.03;;;8.06;100.00
42111;BME280;27766;52.174;5.456;2023-04-07T06:19:32;101466.31;;;8.14;100.00
42111;BME280;27766;52.174;5.456;2023-04-07T06:21:59;101472.38;;;8.14;100.00
42111;BME280;27766;52.174;5.456;2023-04-07T06:24:27;101476.56;;;8.12;100.00
42111;BME280;27766;52.174;5.456;2023-04-07T06:26:54;101473.34;;;8.18;100.00
42111;BME280;27766;52.174;5.456;2023-04-07T06:29:22;101480.47;;;8.23;100.00
42111;BME280;27766;52.174;5.456;2023-04-07T06:31:50;101472.63;;;8.22;100.00
42111;BME280;27766;52.174;5.456;2023-04-07T06:34:17;101467.31;;;8.17;100.00
42111;BME280;27766;52.174;5.456;2023-04-07T06:36:44;101470.69;;;8.16;100.00
42111;BME280;27766;52.174;5.456;2023-04-07T06:39:12;101481.59;;;8.32;100.00
42111;BME280;27766;52.174;5.456;2023-04-07T06:41:39;101477.97;;;8.27;100.00
42111;BME280;27766;52.174;5.456;2023-04-07T06:44:09;101472.94;;;8.30;100.00
42111;BME280;27766;52.174;5.456;2023-04-07T06:46:39;101482.13;;;8.23;100.00
42111;BME280;27766;52.174;5.456;2023-04-07T06:49:08;101485.84;;;8.30;100.00
42111;BME280;27766;52.174;5.456;2023-04-07T06:51:35;101497.16;;;8.33;100.00
42111;BME280;27766;52.174;5.456;2023-04-07T06:54:02;101502.84;;;8.47;100.00
42111;BME280;27766;52.174;5.456;2023-04-07T06:56:31;101493.25;;;8.45;100.00
42111;BME280;27766;52.174;5.456;2023-04-07T06:58:59;101504.59;;;8.48;100.00
42111;BME280;27766;52.174;5.456;2023-04-07T07:01:27;101504.13;;;8.59;100.00
42111;BME280;27766;52.174;5.456;2023-04-07T07:03:54;101507.69;;;8.62;100.00
42111;BME280;27766;52.174;5.456;2023-04-07T07:06:22;101509.47;;;8.63;100.00
42111;BME280;27766;52.174;5.456;2023-04-07T07:08:49;101510.22;;;8.61;100.00
42111;BME280;27766;52.174;5.456;2023-04-07T07:11:16;101510.50;;;8.68;100.00
42111;BME280;27766;52.174;5.456;2023-04-07T07:13:44;101509.13;;;8.78;100.00
42111;BME280;27766;52.174;5.456;2023-04-07T07:16:11;101510.84;;;8.78;100.00
42111;BME280;27766;52.174;5.456;2023-04-07T07:18:39;101506.84;;;8.86;100.00
42111;BME280;27766;52.174;5.456;2023-04-07T07:21:06;101512.47;;;8.76;100.00
42111;BME280;27766;52.174;5.456;2023-04-07T07:23:34;101518.59;;;8.78;100.00
42111;BME280;27766;52.174;5.456;2023-04-07T07:26:02;101510.19;;;8.83;100.00
42111;BME280;27766;52.174;5.456;2023-04-07T07:28:29;101521.56;;;8.89;100.00
42111;BME280;27766;52.174;5.456;2023-04-07T07:30:56;101530.03;;;8.84;100.00
42111;BME280;27766;52.174;5.456;2023-04-07T07:33:24;101526.50;;;8.82;100.00
42111;BME280;27766;52.174;5.456;2023-04-07T07:35:51;101526.16;;;8.73;100.00
42111;BME280;27766;52.174;5.456;2023-04-07T07:38:18;101528.56;;;8.68;100.00
42111;BME280;27766;52.174;5.456;2023-04-07T07:40:46;101529.09;;;8.82;100.00
42111;BME280;27766;52.174;5.456;2023-04-07T07:43:13;101533.22;;;8.77;100.00
42111;BME280;27766;52.174;5.456;2023-04-07T07:45:41;101533.91;;;8.73;100.00
42111;BME280;27766;52.174;5.456;2023-04-07T07:48:08;101532.63;;;8.62;100.00
42111;BME280;27766;52.174;5.456;2023-04-07T07:50:35;101536.94;;;8.63;100.00
42111;BME280;27766;52.174;5.456;2023-04-07T07:53:02;101544.00;;;8.67;100.00
42111;BME280;27766;52.174;5.456;2023-04-07T07:55:29;101550.44;;;8.78;100.00
42111;BME280;27766;52.174;5.456;2023-04-07T07:57:57;101546.47;;;8.64;100.00
42111;BME280;27766;52.174;5.456;2023-04-07T08:00:24;101535.44;;;8.68;100.00
42111;BME280;27766;52.174;5.456;2023-04-07T08:02:51;101557.84;;;8.69;100.00
42111;BME280;27766;52.174;5.456;2023-04-07T08:05:18;101551.28;;;8.77;100.00
42111;BME280;27766;52.174;5.456;2023-04-07T08:07:46;101551.97;;;8.73;100.00
42111;BME280;27766;52.174;5.456;2023-04-07T08:10:14;101560.91;;;8.83;100.00
42111;BME280;27766;52.174;5.456;2023-04-07T08:12:42;101571.06;;;8.78;100.00
42111;BME280;27766;52.174;5.456;2023-04-07T08:15:10;101549.50;;;8.76;100.00
42111;BME280;27766;52.174;5.456;2023-04-07T08:17:37;101566.09;;;8.83;100.00
42111;BME280;27766;52.174;5.456;2023-04-07T08:20:06;101575.72;;;8.87;100.00
42111;BME280;27766;52.174;5.456;2023-04-07T08:22:33;101575.25;;;8.75;100.00
42111;BME280;27766;52.174;5.456;2023-04-07T08:25:00;101579.50;;;8.97;100.00
42111;BME280;27766;52.174;5.456;2023-04-07T08:27:27;101571.59;;;8.92;100.00
42111;BME280;27766;52.174;5.456;2023-04-07T08:30:02;101577.47;;;9.12;100.00
42111;BME280;27766;52.174;5.456;2023-04-07T08:32:38;101587.31;;;9.23;100.00
42111;BME280;27766;52.174;5.456;2023-04-07T08:35:07;101574.94;;;9.14;100.00
42111;BME280;27766;52.174;5.456;2023-04-07T08:37:35;101576.69;;;9.39;100.00
42111;BME280;27766;52.174;5.456;2023-04-07T08:40:02;101575.47;;;9.29;100.00
42111;BME280;27766;52.174;5.456;2023-04-07T08:42:32;101587.13;;;9.42;100.00
42111;BME280;27766;52.174;5.456;2023-04-07T08:45:04;101593.44;;;9.50;100.00
42111;BME280;27766;52.174;5.456;2023-04-07T08:47:33;101592.50;;;9.48;100.00
42111;BME280;27766;52.174;5.456;2023-04-07T08:50:03;101594.94;;;9.44;100.00
42111;BME280;27766;52.174;5.456;2023-04-07T08:52:44;101592.19;;;9.39;100.00
42111;BME280;27766;52.174;5.456;2023-04-07T08:55:12;101600.78;;;9.64;100.00
42111;BME280;27766;52.174;5.456;2023-04-07T08:57:41;101601.84;;;9.69;100.00
42111;BME280;27766;52.174;5.456;2023-04-07T09:00:09;101601.53;;;9.60;100.00
42111;BME280;27766;52.174;5.456;2023-04-07T09:02:39;101616.66;;;9.49;100.00
42111;BME280;27766;52.174;5.456;2023-04-07T09:05:08;101618.75;;;9.35;100.00
42111;BME280;27766;52.174;5.456;2023-04-07T09:07:37;101622.38;;;9.40;100.00
42111;BME280;27766;52.174;5.456;2023-04-07T09:10:06;101614.44;;;9.35;100.00
42111;BME280;27766;52.174;5.456;2023-04-07T09:12:34;101626.97;;;9.25;100.00
42111;BME280;27766;52.174;5.456;2023-04-07T09:15:01;101631.31;;;9.26;100.00
42111;BME280;27766;52.174;5.456;2023-04-07T09:17:28;101633.13;;;9.28;100.00
42111;BME280;27766;52.174;5.456;2023-04-07T09:19:57;101621.47;;;9.38;100.00
42111;BME280;27766;52.174;5.456;2023-04-07T09:25:17;101642.81;;;9.34;100.00
42111;BME280;27766;52.174;5.456;2023-04-07T09:27:58;101633.44;;;9.36;100.00
42111;BME280;27766;52.174;5.456;2023-04-07T09:30:28;101629.63;;;9.50;100.00
42111;BME280;27766;52.174;5.456;2023-04-07T09:32:56;101629.50;;;9.47;100.00
42111;BME280;27766;52.174;5.456;2023-04-07T09:35:24;101633.97;;;9.52;100.00
42111;BME280;27766;52.174;5.456;2023-04-07T09:38:06;101635.34;;;9.42;100.00
42111;BME280;27766;52.174;5.456;2023-04-07T09:40:34;101632.25;;;9.52;100.00
42111;BME280;27766;52.174;5.456;2023-04-07T09:43:03;101633.97;;;9.77;100.00
42111;BME280;27766;52.174;5.456;2023-04-07T09:45:31;101640.38;;;9.63;100.00
42111;BME280;27766;52.174;5.456;2023-04-07T09:48:16;101629.84;;;9.82;100.00
42111;BME280;27766;52.174;5.456;2023-04-07T09:50:44;101636.00;;;9.86;100.00
42111;BME280;27766;52.174;5.456;2023-04-07T09:53:15;101640.53;;;9.92;100.00
42111;BME280;27766;52.174;5.456;2023-04-07T09:55:44;101635.13;;;9.86;100.00
42111;BME280;27766;52.174;5.456;2023-04-07T09:58:12;101635.44;;;9.95;100.00
42111;BME280;27766;52.174;5.456;2023-04-07T10:00:41;101639.16;;;9.77;100.00
42111;BME280;27766;52.174;5.456;2023-04-07T10:03:09;101643.72;;;9.85;100.00
42111;BME280;27766;52.174;5.456;2023-04-07T10:05:37;101643.81;;;9.88;100.00
42111;BME280;27766;52.174;5.456;2023-04-07T10:08:05;101649.72;;;9.84;100.00
42111;BME280;27766;52.174;5.456;2023-04-07T10:10:34;101646.44;;;9.89;100.00
42111;BME280;27766;52.174;5.456;2023-04-07T10:13:04;101640.78;;;10.01;100.00
42111;BME280;27766;52.174;5.456;2023-04-07T10:15:32;101649.88;;;9.88;100.00
42111;BME280;27766;52.174;5.456;2023-04-07T10:17:59;101648.97;;;9.88;100.00
42111;BME280;27766;52.174;5.456;2023-04-07T10:20:32;101640.00;;;9.76;100.00
42111;BME280;27766;52.174;5.456;2023-04-07T10:23:05;101651.59;;;9.89;100.00
42111;BME280;27766;52.174;5.456;2023-04-07T10:25:35;101654.91;;;9.84;100.00
42111;BME280;27766;52.174;5.456;2023-04-07T10:28:07;101665.31;;;9.87;100.00
42111;BME280;27766;52.174;5.456;2023-04-07T10:30:35;101663.72;;;9.90;100.00
42111;BME280;27766;52.174;5.456;2023-04-07T10:33:03;101665.47;;;9.91;100.00
42111;BME280;27766;52.174;5.456;2023-04-07T10:36:04;101669.22;;;10.00;100.00
42111;BME280;27766;52.174;5.456;2023-04-07T10:38:32;101670.97;;;10.01;100.00
42111;BME280;27766;52.174;5.456;2023-04-07T10:41:32;101666.78;;;10.04;100.00
42111;BME280;27766;52.174;5.456;2023-04-07T10:44:03;101679.09;;;10.11;100.00
42111;BME280;27766;52.174;5.456;2023-04-07T10:49:14;101689.84;;;9.98;100.00
42111;BME280;27766;52.174;5.456;2023-04-07T10:54:41;101670.19;;;10.03;100.00
42111;BME280;27766;52.174;5.456;2023-04-07T11:04:54;101686.03;;;10.12;100.00
42111;BME280;27766;52.174;5.456;2023-04-07T11:07:48;101677.44;;;10.13;100.00
42111;BME280;27766;52.174;5.456;2023-04-07T11:10:16;101691.50;;;10.22;100.00
42111;BME280;27766;52.174;5.456;2023-04-07T11:12:57;101687.97;;;10.20;100.00
42111;BME280;27766;52.174;5.456;2023-04-07T11:15:25;101693.88;;;10.41;100.00
42111;BME280;27766;52.174;5.456;2023-04-07T11:20:53;101701.97;;;10.51;100.00
42111;BME280;27766;52.174;5.456;2023-04-07T11:23:21;101700.09;;;10.47;100.00
42111;BME280;27766;52.174;5.456;2023-04-07T11:25:52;101707.31;;;10.31;100.00
42111;BME280;27766;52.174;5.456;2023-04-07T11:28:19;101708.56;;;10.17;100.00
42111;BME280;27766;52.174;5.456;2023-04-07T11:30:49;101703.97;;;10.08;100.00
42111;BME280;27766;52.174;5.456;2023-04-07T11:33:22;101720.69;;;10.18;100.00
42111;BME280;27766;52.174;5.456;2023-04-07T11:35:54;101705.28;;;10.21;100.00
42111;BME280;27766;52.174;5.456;2023-04-07T11:38:28;101712.91;;;10.18;100.00
42111;BME280;27766;52.174;5.456;2023-04-07T11:40:56;101708.00;;;10.25;100.00
42111;BME280;27766;52.174;5.456;2023-04-07T11:43:26;101714.88;;;10.25;100.00
42111;BME280;27766;52.174;5.456;2023-04-07T11:46:15;101708.16;;;10.30;100.00
42111;BME280;27766;52.174;5.456;2023-04-07T11:48:44;101716.06;;;10.35;100.00
42111;BME280;27766;52.174;5.456;2023-04-07T11:51:16;101715.50;;;10.42;100.00
42111;BME280;27766;52.174;5.456;2023-04-07T11:53:43;101727.56;;;10.43;100.00
42111;BME280;27766;52.174;5.456;2023-04-07T11:56:14;101708.97;;;10.55;100.00
42111;BME280;27766;52.174;5.456;2023-04-07T11:58:52;101717.22;;;10.70;100.00
42111;BME280;27766;52.174;5.456;2023-04-07T12:01:21;101726.94;;;10.77;100.00
42111;BME280;27766;52.174;5.456;2023-04-07T12:06:35;101736.94;;;10.65;100.00
42111;BME280;27766;52.174;5.456;2023-04-07T12:09:04;101728.78;;;10.53;100.00
42111;BME280;27766;52.174;5.456;2023-04-07T12:11:32;101725.63;;;10.63;100.00
42111;BME280;27766;52.174;5.456;2023-04-07T12:14:01;101736.94;;;10.65;100.00
42111;BME280;27766;52.174;5.456;2023-04-07T12:16:30;101730.81;;;10.90;100.00
42111;BME280;27766;52.174;5.456;2023-04-07T12:18:58;101738.34;;;10.83;100.00
42111;BME280;27766;52.174;5.456;2023-04-07T12:21:25;101745.06;;;10.77;100.00
42111;BME280;27766;52.174;5.456;2023-04-07T12:23:52;101742.00;;;10.62;100.00
42111;BME280;27766;52.174;5.456;2023-04-07T12:26:19;101742.63;;;10.55;100.00
42111;BME280;27766;52.174;5.456;2023-04-07T12:28:49;101748.09;;;10.64;100.00
42111;BME280;27766;52.174;5.456;2023-04-07T12:31:17;101741.50;;;10.74;100.00
42111;BME280;27766;52.174;5.456;2023-04-07T12:33:44;101750.16;;;10.74;100.00
42111;BME280;27766;52.174;5.456;2023-04-07T12:36:11;101748.78;;;10.58;100.00
42111;BME280;27766;52.174;5.456;2023-04-07T12:38:39;101753.06;;;10.32;100.00
42111;BME280;27766;52.174;5.456;2023-04-07T12:41:06;101757.38;;;10.32;100.00
42111;BME280;27766;52.174;5.456;2023-04-07T12:43:34;101746.38;;;10.37;100.00
42111;BME280;27766;52.174;5.456;2023-04-07T12:46:01;101765.97;;;10.30;100.00
42111;BME280;27766;52.174;5.456;2023-04-07T12:48:29;101765.59;;;10.20;100.00
42111;BME280;27766;52.174;5.456;2023-04-07T12:50:56;101764.97;;;10.27;100.00
42111;BME280;27766;52.174;5.456;2023-04-07T12:53:23;101762.00;;;10.40;100.00
42111;BME280;27766;52.174;5.456;2023-04-07T12:55:54;101766.41;;;10.43;100.00
42111;BME280;27766;52.174;5.456;2023-04-07T12:58:22;101765.84;;;10.52;100.00
42111;BME280;27766;52.174;5.456;2023-04-07T13:00:51;101771.72;;;10.48;100.00
42111;BME280;27766;52.174;5.456;2023-04-07T13:03:19;101769.41;;;10.31;100.00
42111;BME280;27766;52.174;5.456;2023-04-07T13:05:46;101761.66;;;10.31;100.00
42111;BME280;27766;52.174;5.456;2023-04-07T13:08:14;101774.84;;;10.37;100.00
42111;BME280;27766;52.174;5.456;2023-04-07T13:10:41;101765.03;;;10.28;100.00
42111;BME280;27766;52.174;5.456;2023-04-07T13:13:09;101779.44;;;10.46;100.00
42111;BME280;27766;52.174;5.456;2023-04-07T13:15:36;101777.84;;;10.50;100.00
42111;BME280;27766;52.174;5.456;2023-04-07T13:18:03;101778.63;;;10.47;100.00
42111;BME280;27766;52.174;5.456;2023-04-07T13:20:30;101779.88;;;10.34;100.00
42111;BME280;27766;52.174;5.456;2023-04-07T13:22:57;101781.75;;;10.38;100.00
42111;BME280;27766;52.174;5.456;2023-04-07T13:25:36;101776.66;;;10.40;100.00
42111;BME280;27766;52.174;5.456;2023-04-07T13:28:03;101781.75;;;10.38;100.00
42111;BME280;27766;52.174;5.456;2023-04-07T13:30:30;101788.59;;;10.36;100.00